• Join FlightAware (Why Join?)
  • Login
  • US Flag 
02:43PM EST


 

Airport Tracker/Info


-or-


 

Live Flight TrackerFlight Track Log ✈ CJT5095 ✈ 29-Apr-2013 ✈ CYFB - CYHM

Flight Track Log - Related Links

Times and Time Zones

All times are in EDT time to prevent confusion due to time zone crossing. See the CJT5095 flight status page for this flight to view local times or setup timezone preferences in your user account.

Time Position Orientation Groundspeed Altitude Reporting Facility
EDT Latitude Longitude Course Direction KTS MPH feet Rate Location/Type
02:45PM 63.7667 -68.4667 205° Southwest 120 138 2,900  Level Montreal Center
02:46PM 63.7167 -68.5500 216° Southwest 220 253 6,000 3,600 Climbing Montreal Center
02:47PM 63.6500 -68.6333 209° Southwest 260 299 10,100 3,360 Climbing Montreal Center
02:48PM 63.5667 -68.7000 200° South 320 368 12,800 3,000 Climbing Montreal Center
02:49PM 63.4833 -68.8000 208° Southwest 370 426 16,100 3,060 Climbing Montreal Center
02:50PM 63.3833 -68.8500 193° South 390 449 19,000 2,940 Climbing Montreal Center
02:51PM 62.9828 -69.2339 205° Southwest  Level FlightAware Approximate
02:51PM 63.2833 -68.9500 204° Southwest 410 472 22,000  Level Montreal Center
02:52PM 63.1500 -69.0667 202° Southwest 430 495 25,100 2,820 Climbing Montreal Center
02:53PM 63.0333 -69.1667 201° Southwest 440 506 27,700 2,400 Climbing Montreal Center
02:54PM 62.9333 -69.2500 201° Southwest 450 518 30,000 2,100 Climbing Montreal Center
02:55PM 62.8000 -69.4000 207° Southwest 470 541 31,900 2,340 Climbing Montreal Center
02:56PM 62.6833 -69.5000 201° Southwest 470 541 34,700 2,340 Climbing Montreal Center
02:57PM 62.5667 -69.5833 198° South 460 529 36,600 1,860 Climbing Montreal Center
02:58PM 62.4667 -69.6833 205° Southwest 450 518 38,500 1,620 Climbing Montreal Center
02:59PM 62.3500 -69.7833 202° Southwest 450 518 39,900 720 Climbing Montreal Center
03:00PM 62.2167 -69.8833 199° South 450 518 40,000  Climbing Montreal Center
03:01PM 62.1000 -69.9667 198° South 450 518 40,000  Level Montreal Center
03:02PM 61.9833 -70.0667 202° Southwest 450 518 40,000  Level Montreal Center
03:03PM 61.8667 -70.1667 202° Southwest 450 518 40,000  Level Montreal Center
03:04PM 61.7500 -70.2500 199° South 450 518 40,000  Level Montreal Center
03:05PM 61.6333 -70.3500 202° Southwest 450 518 40,000  Level Montreal Center
03:06PM 61.5167 -70.4333 199° South 450 518 40,000  Level Montreal Center
03:07PM 61.4000 -70.5333 202° Southwest 450 518 40,000  Level Montreal Center
03:08PM 61.2833 -70.6167 199° South 450 518 40,000  Level Montreal Center
03:09PM 61.1667 -70.7000 199° South 440 506 40,000  Level Montreal Center
03:10PM 61.0667 -70.8333 213° Southwest 440 506 40,000  Level Montreal Center
03:11PM 60.9500 -70.8833 192° South 450 518 40,000  Level Montreal Center
03:12PM 60.8333 -71.0000 206° Southwest 440 506 40,000  Level Montreal Center
03:13PM 60.7167 -71.0833 199° South 450 518 40,000  Level Montreal Center
03:14PM 60.6000 -71.1667 199° South 440 506 40,000  Level Montreal Center
03:15PM 60.4667 -71.2500 197° South 450 518 40,000  Level Montreal Center
03:16PM 60.3500 -71.3500 203° Southwest 450 518 40,000  Level Montreal Center
03:17PM 60.2500 -71.4333 202° Southwest 440 506 40,000  Level Montreal Center
03:18PM 60.1333 -71.5167 200° South 450 518 40,000  Level Montreal Center
03:19PM 60.0167 -71.5833 196° South 450 518 40,000  Level Montreal Center
03:20PM 59.9000 -71.6667 200° South 440 506 40,000  Level Montreal Center
03:21PM 59.7667 -71.7500 197° South 440 506 40,000  Level Montreal Center
03:22PM 59.6500 -71.8333 200° South 440 506 40,000  Level Montreal Center
03:23PM 59.5333 -71.9167 200° South 440 506 40,000  Level Montreal Center
03:24PM 59.4167 -72.0000 200° South 440 506 40,000  Level Montreal Center
03:25PM 59.3000 -72.0833 200° South 440 506 40,000  Level Montreal Center
03:26PM 59.1833 -72.1500 196° South 440 506 40,000  Level Montreal Center
03:27PM 59.0667 -72.2333 200° South 440 506 40,000  Level Montreal Center
03:28PM 58.9500 -72.3167 200° South 440 506 40,000  Level Montreal Center
03:29PM 58.8500 -72.3833 199° South 440 506 40,000  Level Montreal Center
03:30PM 58.7333 -72.4667 200° South 460 529 40,000  Level Montreal Center
03:31PM 58.6167 -72.5333 197° South 430 495 40,000  Level Montreal Center
03:32PM 58.5000 -72.6500 208° Southwest 430 495 40,000  Level Montreal Center
03:33PM 58.3833 -72.7167 197° South 440 506 40,000  Level Montreal Center
03:34PM 58.2667 -72.8000 201° Southwest 440 506 40,000  Level Montreal Center
03:35PM 58.1500 -72.8667 197° South 440 506 40,000  Level Montreal Center
03:36PM 58.0333 -72.9500 201° Southwest 440 506 40,000  Level Montreal Center
03:37PM 57.9167 -73.0167 197° South 440 506 40,000  Level Montreal Center
03:38PM 57.8000 -73.0833 197° South 430 495 40,000  Level Montreal Center
03:39PM 57.6667 -73.1667 198° South 440 506 40,000  Level Montreal Center
03:40PM 57.5667 -73.2333 200° South 440 506 40,000  Level Montreal Center
03:41PM 57.4333 -73.3000 195° South 450 518 40,000  Level Montreal Center
03:42PM 57.3167 -73.3833 201° Southwest 440 506 40,000  Level Montreal Center
03:43PM 57.2000 -73.4500 197° South 450 518 40,000  Level Montreal Center
03:44PM 57.0833 -73.5167 197° South 440 506 40,000  Level Montreal Center
03:45PM 56.9667 -73.5833 197° South 440 506 40,000  Level Montreal Center
03:46PM 56.8500 -73.6500 197° South 440 506 40,000  Level Montreal Center
03:47PM 56.7333 -73.7167 197° South 440 506 40,000  Level Montreal Center
03:48PM 56.6167 -73.7833 197° South 450 518 40,000  Level Montreal Center
03:49PM 56.4833 -73.8667 199° South 440 506 40,000  Level Montreal Center
03:50PM 56.3667 -73.9333 198° South 440 506 40,000  Level Montreal Center
03:51PM 56.2500 -74.0000 198° South 450 518 40,000  Level Montreal Center
03:52PM 56.1500 -74.0500 196° South 440 506 40,000  Level Montreal Center
03:53PM 56.0333 -74.1167 198° South 430 495 40,000  Level Montreal Center
03:54PM 55.9000 -74.1833 196° South 440 506 40,000  Level Montreal Center
03:55PM 55.7833 -74.2500 198° South 440 506 40,000  Level Montreal Center
03:56PM 55.6667 -74.3167 198° South 440 506 40,000  Level Montreal Center
03:57PM 55.5500 -74.3833 198° South 440 506 40,000  Level Montreal Center
03:58PM 55.4333 -74.4500 198° South 440 506 40,000  Level Montreal Center
03:59PM 55.3167 -74.5167 198° South 450 518 40,000  Level Montreal Center
04:00PM 55.2000 -74.5833 198° South 440 506 40,000  Level Montreal Center
04:01PM 55.0833 -74.6333 194° South 430 495 40,000  Level Montreal Center
04:02PM 54.9667 -74.7000 198° South 440 506 40,000  Level Montreal Center
04:03PM 54.8500 -74.8000 206° Southwest 450 518 40,000  Level Montreal Center
04:04PM 54.7333 -74.8500 194° South 440 506 40,000  Level Montreal Center
04:05PM 54.6167 -74.9167 198° South 440 506 40,000  Level Montreal Center
04:06PM 54.5000 -74.9833 198° South 440 506 40,000  Level Montreal Center
04:07PM 54.3833 -75.0333 194° South 440 506 40,000  Level Montreal Center
04:08PM 54.2667 -75.1000 198° South 440 506 40,000  Level Montreal Center
04:09PM 54.1500 -75.1500 194° South 440 506 40,000  Level Montreal Center
04:10PM 54.0333 -75.2167 199° South 440 506 40,000  Level Montreal Center
04:11PM 53.9167 -75.2833 199° South 450 518 40,000  Level Montreal Center
04:12PM 53.8000 -75.3333 194° South 440 506 40,000  Level Montreal Center
04:13PM 53.6667 -75.4000 197° South 440 506 40,000  Level Montreal Center
04:14PM 53.5333 -75.4500 193° South 440 506 40,000  Level Montreal Center
04:15PM 53.4167 -75.5167 199° South 440 506 40,000  Level Montreal Center
04:16PM 53.3000 -75.5667 194° South 440 506 40,000  Level Montreal Center
04:17PM 53.1833 -75.6333 199° South 430 495 40,000  Level Montreal Center
04:18PM 53.0667 -75.6833 194° South 430 495 40,000  Level Montreal Center
04:19PM 52.9500 -75.7333 194° South 440 506 40,000  Level Montreal Center
04:20PM 52.8333 -75.8000 199° South 440 506 40,000  Level Montreal Center
04:21PM 52.7167 -75.8500 195° South 430 495 40,000  Level Montreal Center
04:22PM 52.6000 -75.9167 199° South 440 506 40,000  Level Montreal Center
04:23PM 52.4833 -75.9667 195° South 440 506 40,000  Level Montreal Center
04:24PM 52.3667 -76.0167 195° South 440 506 40,000  Level Montreal Center
04:25PM 52.2500 -76.0667 195° South 440 506 40,000  Level Montreal Center
04:26PM 52.1333 -76.1333 199° South 440 506 40,000  Level Montreal Center
04:27PM 52.0000 -76.1833 193° South 450 518 40,000  Level Montreal Center
04:28PM 51.9000 -76.2333 197° South 450 518 40,000  Level Montreal Center
04:29PM 51.7500 -76.2833 192° South 450 518 40,000  Level Montreal Center
04:30PM 51.6333 -76.3500 200° South 450 518 40,000  Level Montreal Center
04:31PM 51.5167 -76.4167 200° South 450 518 40,000  Level Montreal Center
04:32PM 51.4000 -76.4833 200° South 450 518 40,000  Level Montreal Center
04:33PM 51.2667 -76.5333 193° South 450 518 40,000  Level Montreal Center
04:34PM 51.1500 -76.5833 195° South 450 518 40,000  Level Montreal Center
04:35PM 51.0500 -76.6333 197° South 440 506 40,000  Level Montreal Center
04:36PM 50.9167 -76.6833 193° South 450 518 40,000  Level Montreal Center
04:37PM 50.7833 -76.7333 193° South 450 518 40,000  Level Montreal Center
04:38PM 50.6833 -76.7833 198° South 450 518 40,000  Level Montreal Center
04:39PM 50.5667 -76.8333 195° South 450 518 40,000  Level Montreal Center
04:40PM 50.4333 -76.8833 193° South 450 518 40,000  Level Montreal Center
04:41PM 50.3000 -76.9333 193° South 450 518 40,000  Level Montreal Center
04:42PM 50.1833 -76.9833 195° South 450 518 40,000  Level Montreal Center
04:43PM 50.0667 -77.0333 195° South 450 518 40,000  Level Montreal Center
04:44PM 49.9333 -77.1167 202° Southwest 450 518 40,000  Level Montreal Center
04:45PM 49.8167 -77.1667 195° South 450 518 40,000  Level Montreal Center
04:46PM 49.7000 -77.2167 195° South 450 518 40,000  Level Montreal Center
04:47PM 49.5833 -77.2667 196° South 460 529 40,000  Level Montreal Center
04:48PM 49.4667 -77.3167 196° South 430 495 40,000  Level Montreal Center
04:49PM 49.3333 -77.3667 194° South 470 541 40,000  Level Montreal Center
04:50PM 49.2167 -77.4000 191° South 460 529 40,000  Level Montreal Center
04:51PM 49.0833 -77.4500 194° South 440 506 40,000  Level Montreal Center
04:52PM 48.9667 -77.5000 196° South 450 518 40,000  Level Montreal Center
04:53PM 48.8333 -77.5500 194° South 450 518 40,000  Level Montreal Center
04:54PM 48.7167 -77.6000 196° South 440 506 40,000  Level Montreal Center
05:00PM 48.0670 -77.9440 196° South 449 517 40,000  Level FlightAware
05:00PM 47.9860 -77.9900 201° Southwest 448 516 40,000  Level FlightAware
05:01PM 47.8890 -78.0460 201° Southwest 447 514 40,000  Level FlightAware
05:02PM 47.8230 -78.0830 201° Southwest 447 514 40,000  Level FlightAware
05:03PM 47.7580 -78.1210 201° Southwest 447 514 40,000  Level FlightAware
05:04PM 47.6760 -78.1680 201° Southwest 447 514 40,000  Level FlightAware
05:04PM 47.6100 -78.2050 201° Southwest 447 514 40,000  Level FlightAware
05:05PM 47.5440 -78.2430 201° Southwest 447 514 40,000  Level FlightAware
05:06PM 47.4790 -78.2800 201° Southwest 447 514 40,000  Level FlightAware
05:06PM 47.4130 -78.3170 201° Southwest 447 514 40,000  Level FlightAware
05:07PM 47.3310 -78.3640 201° Southwest 447 514 40,000  Level FlightAware
05:08PM 47.2650 -78.4010 201° Southwest 447 514 40,000  Level FlightAware
05:08PM 47.0650 -78.5040 199° South 449 517 40,000  Level FlightAware
05:09PM 46.9790 -78.5500 200° South 449 517 40,000  Level FlightAware
05:10PM 46.9050 -78.5910 201° Southwest 449 517 40,000  Level FlightAware
05:11PM 46.8060 -78.6440 200° South 449 517 40,000  Level FlightAware
05:11PM 46.7290 -78.6850 200° South 449 517 40,000  Level FlightAware
05:12PM 46.6400 -78.7340 201° Southwest 449 517 40,000  Level FlightAware
05:13PM 46.5660 -78.7740 200° South 449 517 40,000  Level FlightAware
05:13PM 46.4890 -78.8140 200° South 450 518 40,000  Level FlightAware
05:14PM 46.3960 -78.8640 200° South 451 519 40,000  Level FlightAware
05:15PM 46.3220 -78.8920 195° South 453 521 40,000  Level FlightAware
05:15PM 46.2220 -78.8990 183° South 456 525 40,000  Level FlightAware
05:16PM 46.1370 -78.8990 180° South 457 526 40,000  Level FlightAware
05:17PM 46.0520 -78.8990 180° South 457 526 40,000  Level FlightAware
05:17PM 45.9690 -78.9000 180° South 457 526 40,000  Level FlightAware
05:18PM 45.8830 -78.9010 180° South 457 526 40,000  Level FlightAware
05:19PM 45.7940 -78.9020 180° South 458 527 40,000  Level FlightAware
05:20PM 45.6940 -78.9030 180° South 459 528 40,000  Level FlightAware
05:20PM 45.5980 -78.9040 180° South 460 529 40,000 -120 Level FlightAware
05:21PM 45.5170 -78.9060 181° South 457 526 39,900 -720 Descending FlightAware
05:22PM 45.4190 -78.9070 180° South 459 528 39,000 -1,500 Descending FlightAware
05:22PM 45.3320 -78.9080 180° South 468 539 37,800 -1,800 Descending FlightAware
05:23PM 45.2460 -78.9090 180° South 472 543 36,600 -1,680 Descending FlightAware
05:24PM 45.1580 -78.9110 181° South 468 539 35,600 -1,860 Descending FlightAware
05:25PM 45.0650 -78.9120 180° South 472 543 34,000 -2,400 Descending FlightAware
05:25PM 44.9760 -78.9300 188° South 472 543 32,200 -2,700 Descending FlightAware
05:26PM 44.8850 -78.9730 199° South 470 541 30,200 -3,000 Descending FlightAware
05:27PM 44.8040 -79.0190 202° Southwest 476 548 28,000 -3,180 Descending FlightAware
05:27PM 44.7120 -79.0710 202° Southwest 480 552 25,700 -2,580 Descending FlightAware
05:28PM 44.6280 -79.1170 201° Southwest 465 535 24,400 -1,980 Descending FlightAware
05:29PM 44.5370 -79.1660 201° Southwest 455 524 22,900 -1,980 Descending FlightAware
05:29PM 44.4610 -79.2080 202° Southwest 447 514 21,600 -1,920 Descending FlightAware
05:30PM 44.3850 -79.2490 201° Southwest 439 505 20,400 -1,800 Descending FlightAware
05:31PM 44.3010 -79.2950 201° Southwest 430 495 19,100 -1,800 Descending FlightAware
05:32PM 44.2260 -79.3360 201° Southwest 424 488 17,900 -1,740 Descending FlightAware
05:32PM 44.1530 -79.3750 201° Southwest 416 479 16,800 -1,380 Descending FlightAware
05:33PM 44.0740 -79.4180 201° Southwest 409 471 16,000 -600 Descending FlightAware
05:34PM 44.0030 -79.4560 201° Southwest 412 474 16,000  Level FlightAware
05:34PM 43.9240 -79.4990 201° Southwest 414 476 16,000 -360 Level FlightAware
05:35PM 43.8520 -79.5370 201° Southwest 410 472 15,500 -1,320 Descending FlightAware
05:36PM 43.7750 -79.5780 201° Southwest 401 461 14,200 -1,440 Descending FlightAware
05:36PM 43.7080 -79.6130 201° Southwest 348 400 13,500 -780 Descending FlightAware
05:37PM 43.6520 -79.6450 202° Southwest 299 344 13,200 -1,380 Descending FlightAware
05:38PM 43.6000 -79.6780 205° Southwest 281 323 11,600 -1,920 Descending FlightAware
05:39PM 43.5510 -79.7100 205° Southwest 274 315 10,500 -1,680 Descending FlightAware
05:39PM 43.5170 -79.7310 204° Southwest 272 313 9,700 -1,560 Descending FlightAware
05:39PM 43.4880 -79.7490 204° Southwest 270 311 9,100 -1,320 Descending FlightAware
05:40PM 43.4540 -79.7700 204° Southwest 267 307 8,500 -1,320 Descending FlightAware
05:40PM 43.4270 -79.7870 205° Southwest 263 303 7,900 -1,680 Descending FlightAware
05:41PM 43.3940 -79.8080 205° Southwest 261 300 7,000 -1,800 Descending FlightAware
05:41PM 43.3640 -79.8370 215° Southwest 261 300 6,100 -1,800 Descending FlightAware
05:42PM 43.3440 -79.8680 228° Southwest 261 300 5,400 -1,680 Descending FlightAware
05:42PM 43.3210 -79.9050 229° Southwest 258 297 4,600 -1,440 Descending FlightAware
05:43PM 43.3020 -79.9360 230° Southwest 259 298 4,100 -900 Descending FlightAware
05:43PM 43.2950 -79.9580 246° West 254 292 4,000 -300 Descending FlightAware
05:43PM 43.2990 -80.0060 277° West 222 255 3,900 -360 Descending FlightAware
05:44PM 43.3050 -80.0390 284° West 211 243 3,700 -660 Descending FlightAware
05:44PM 43.3110 -80.0750 283° West 209 241 3,300 -720 Descending FlightAware
05:45PM 43.3180 -80.1110 285° West 209 241 3,000 -360 Descending FlightAware
05:45PM 43.3190 -80.1400 273° West 186 214 3,000  Level FlightAware
05:46PM 43.3060 -80.1550 220° Southwest 176 203 3,000  Level FlightAware
05:46PM 43.2820 -80.1660 198° South 177 204 3,000  Level FlightAware
05:47PM 43.2470 -80.1380 150° Southeast 181 208 3,000  Level FlightAware
05:47PM 43.2380 -80.1110 115° Southeast 187 215 3,000 -420 Level FlightAware
05:48PM 43.2320 -80.0860 108° East 188 216 2,700 -960 Descending FlightAware
05:48PM 43.2260 -80.0590 107° East 177 204 2,300 -480 Descending FlightAware
05:49PM 43.2090 -80.0670 199° South 177 204 2,300 -840 Level FlightAware
05:49PM 43.2160 -80.0180 79° East 177 204 1,700 -1,200 Descending FlightAware
05:49PM 43.2120 -80.0010 108° East 113 130 1,400 -420 Descending FlightAware
05:50PM 43.2060 -79.9760 108° East 114 131 1,300 -720 Descending FlightAware
05:50PM 43.1667 -79.9333 108° East 120 138 700 -1,620 Descending Toronto Center
05:52PM 43.1731 -79.9350 North  Level Estimated
05:59PM 43.1667 -79.9333 North  Level FlightAware Approximate
06:00PM 43.1731 -79.9350 North  Level Estimated
06:01PM 43.1667 -79.9333 North  Level FlightAware Approximate
06:02PM 43.1731 -79.9350 North  Level Estimated
06:03PM 43.1667 -79.9333 North  Level FlightAware Approximate